Time;durP1;ratioP1;P1;durP2;ratioP2;P2;SDS_P1;SDS_P2;PMS_P1;PMS_P2;Temp;Humidity;BMP_temperature;BMP_pressure;BME280_temperature;BME280_humidity;BME280_pressure;Samples;Min_cycle;Max_cycle;Signal;HPM_P1;HPM_P2
2023/06/06 00:02:11;;;;;;;3.17;2.97;;;23.10;47.50;;;;;;5053439;28;20253;-79
2023/06/06 00:04:38;;;;;;;2.72;2.53;;;23.10;47.50;;;;;;5053211;28;20254;-79
2023/06/06 00:07:08;;;;;;;3.17;2.88;;;23.10;47.50;;;;;;5054749;28;20196;-79
2023/06/06 00:09:36;;;;;;;2.63;2.42;;;23.10;47.50;;;;;;5054194;28;20278;-79
2023/06/06 00:12:04;;;;;;;2.67;2.47;;;23.10;47.60;;;;;;5053729;28;20311;-79
2023/06/06 00:14:32;;;;;;;2.60;2.40;;;23.00;47.60;;;;;;5020969;28;20689;-79
2023/06/06 00:17:00;;;;;;;2.97;2.72;;;23.00;47.60;;;;;;5053275;28;20207;-79
2023/06/06 00:19:28;;;;;;;2.60;2.40;;;23.00;47.70;;;;;;5053534;28;20206;-79
2023/06/06 00:21:55;;;;;;;2.92;2.65;;;23.00;47.70;;;;;;5053419;28;20293;-79
2023/06/06 00:24:22;;;;;;;2.80;2.60;;;23.00;47.70;;;;;;5053282;28;20277;-79
2023/06/06 00:26:49;;;;;;;2.75;2.50;;;23.00;47.80;;;;;;5053299;28;20293;-79
2023/06/06 00:29:16;;;;;;;2.60;2.40;;;22.90;47.70;;;;;;5054185;28;20199;-79
2023/06/06 00:31:46;;;;;;;2.80;2.60;;;22.90;47.80;;;;;;5040506;28;20196;-79
2023/06/06 00:34:12;;;;;;;2.88;2.42;;;22.90;47.90;;;;;;5056522;28;20219;-79
2023/06/06 00:36:39;;;;;;;2.47;2.28;;;22.90;47.90;;;;;;5054657;28;20200;-79
2023/06/06 00:39:06;;;;;;;2.80;2.60;;;22.90;48.00;;;;;;5054522;28;20199;-79
2023/06/06 00:41:35;;;;;;;2.72;2.50;;;22.90;48.00;;;;;;5052718;28;20219;-79
2023/06/06 00:44:02;;;;;;;2.30;2.20;;;22.80;48.00;;;;;;5052582;28;20593;-79
2023/06/06 00:46:29;;;;;;;2.40;2.20;;;22.80;48.00;;;;;;5052868;28;20573;-79
2023/06/06 00:48:58;;;;;;;2.53;2.33;;;22.80;48.00;;;;;;5051689;28;20648;-79
2023/06/06 00:51:25;;;;;;;2.63;2.42;;;22.80;48.00;;;;;;5067284;28;20191;-79
2023/06/06 00:53:52;;;;;;;2.65;2.45;;;22.80;48.00;;;;;;5078463;28;20195;-79
2023/06/06 00:56:20;;;;;;;2.60;2.40;;;22.70;47.90;;;;;;5067263;28;20207;-79
2023/06/06 00:58:47;;;;;;;2.78;2.58;;;22.80;48.10;;;;;;5052387;28;20199;-79
2023/06/06 01:01:16;;;;;;;2.40;2.30;;;22.70;48.00;;;;;;5052468;28;20248;-79
2023/06/06 01:03:44;;;;;;;2.50;2.30;;;22.70;48.00;;;;;;5052360;28;20561;-79
2023/06/06 01:06:12;;;;;;;2.30;2.10;;;22.70;48.00;;;;;;5035632;28;20195;-79
2023/06/06 01:08:39;;;;;;;2.70;2.50;;;22.70;48.10;;;;;;5052257;28;20666;-79
2023/06/06 01:11:10;;;;;;;2.58;2.38;;;22.80;48.30;;;;;;5052880;28;20199;-79
2023/06/06 01:13:42;;;;;;;2.45;2.25;;;22.70;48.20;;;;;;5056222;28;20241;-79
2023/06/06 01:16:12;;;;;;;2.67;2.47;;;22.70;48.30;;;;;;5056521;28;20256;-79
2023/06/06 01:18:41;;;;;;;2.25;2.15;;;22.60;48.20;;;;;;5056228;28;20664;-79
2023/06/06 01:21:08;;;;;;;2.20;2.10;;;22.60;48.30;;;;;;5056345;28;20586;-79
2023/06/06 01:23:37;;;;;;;2.38;2.17;;;22.60;48.20;;;;;;5040000;28;20607;-79
2023/06/06 01:26:05;;;;;;;2.40;2.25;;;22.60;48.30;;;;;;5056054;28;20215;-79
2023/06/06 01:28:33;;;;;;;2.88;2.58;;;22.60;48.30;;;;;;5057127;28;20203;-79
2023/06/06 01:31:00;;;;;;;2.28;2.17;;;22.60;48.30;;;;;;5057221;28;20270;-79
2023/06/06 01:33:31;;;;;;;2.10;2.00;;;22.60;48.30;;;;;;5055988;28;20211;-79
2023/06/06 01:36:03;;;;;;;2.58;2.38;;;22.60;48.30;;;;;;5056294;28;20295;-79
2023/06/06 01:38:32;;;;;;;2.33;2.13;;;22.60;48.30;;;;;;5055920;28;20654;-79
2023/06/06 01:41:02;;;;;;;2.40;2.20;;;22.50;48.30;;;;;;5056285;28;20207;-79
2023/06/06 01:43:29;;;;;;;2.17;2.03;;;22.50;48.30;;;;;;5055796;28;20199;-79
2023/06/06 01:45:57;;;;;;;2.60;2.40;;;22.50;48.30;;;;;;5056809;28;20239;-79
2023/06/06 01:48:23;;;;;;;2.47;2.28;;;22.50;48.30;;;;;;5055516;28;20195;-79
2023/06/06 01:50:51;;;;;;;2.13;2.03;;;22.50;48.40;;;;;;5055622;28;20581;-79
2023/06/06 01:53:18;;;;;;;2.40;2.20;;;22.50;48.40;;;;;;5055414;28;20215;-79
2023/06/06 01:55:48;;;;;;;2.65;2.45;;;22.50;48.40;;;;;;5055482;28;20223;-79
2023/06/06 01:58:17;;;;;;;2.40;2.20;;;22.50;48.40;;;;;;5055800;28;20195;-79
2023/06/06 02:00:45;;;;;;;2.20;2.10;;;22.50;48.40;;;;;;5040055;28;20199;-79
2023/06/06 02:03:12;;;;;;;2.50;2.30;;;22.50;48.40;;;;;;5055368;28;20246;-79
2023/06/06 02:05:39;;;;;;;2.40;2.20;;;22.40;48.40;;;;;;5055286;28;20223;-79
2023/06/06 02:08:07;;;;;;;2.20;2.10;;;22.40;48.40;;;;;;5055418;28;20200;-79
2023/06/06 02:10:34;;;;;;;2.40;2.20;;;22.40;48.40;;;;;;5055290;28;20648;-79
2023/06/06 02:13:01;;;;;;;2.20;2.10;;;22.40;48.50;;;;;;5055183;28;20215;-79
2023/06/06 02:15:29;;;;;;;2.17;2.08;;;22.40;48.50;;;;;;5055108;28;20223;-79
2023/06/06 02:17:57;;;;;;;2.05;1.95;;;22.40;48.50;;;;;;5055100;28;20207;-79
2023/06/06 02:20:25;;;;;;;2.20;2.10;;;22.40;48.50;;;;;;5055910;28;20203;-79
2023/06/06 02:22:52;;;;;;;1.90;1.80;;;22.40;48.60;;;;;;5054571;28;20207;-79
2023/06/06 02:25:23;;;;;;;2.40;2.20;;;22.40;48.60;;;;;;5038624;28;20318;-79
2023/06/06 02:27:51;;;;;;;2.10;2.00;;;22.30;48.50;;;;;;5055131;28;20187;-79
2023/06/06 02:30:17;;;;;;;2.47;2.28;;;22.30;48.60;;;;;;5054998;28;20207;-79
2023/06/06 02:32:46;;;;;;;2.28;2.08;;;22.30;48.60;;;;;;5054925;28;20229;-79
2023/06/06 02:35:14;;;;;;;2.30;2.10;;;22.30;48.60;;;;;;5055249;28;20215;-79
2023/06/06 02:37:41;;;;;;;2.70;2.45;;;22.30;48.60;;;;;;5054974;28;20658;-79
2023/06/06 02:40:11;;;;;;;2.50;2.30;;;22.30;48.60;;;;;;5054889;28;20203;-79
2023/06/06 02:42:39;;;;;;;2.20;2.10;;;22.30;48.70;;;;;;5038629;28;20191;-79
2023/06/06 02:45:08;;;;;;;2.50;2.30;;;22.30;48.70;;;;;;5054801;28;20625;-79
2023/06/06 02:47:35;;;;;;;2.30;2.10;;;22.20;48.70;;;;;;5054788;28;20199;-79
2023/06/06 02:50:05;;;;;;;2.28;1.98;;;22.20;48.70;;;;;;5054979;28;20627;-79
2023/06/06 02:52:32;;;;;;;2.13;2.03;;;22.20;48.70;;;;;;5054861;28;20223;-79
2023/06/06 02:55:00;;;;;;;2.03;1.92;;;22.20;48.70;;;;;;5056115;28;20226;-79
2023/06/06 02:57:27;;;;;;;2.10;2.00;;;22.20;48.70;;;;;;5038904;28;20199;-79
2023/06/06 02:59:55;;;;;;;2.10;2.00;;;22.20;48.80;;;;;;5054954;28;20198;-79
2023/06/06 03:02:22;;;;;;;2.08;1.98;;;22.10;48.70;;;;;;5054456;28;20226;-79
2023/06/06 03:04:49;;;;;;;2.10;1.90;;;22.10;48.70;;;;;;5054386;28;20215;-79
2023/06/06 03:07:17;;;;;;;2.00;1.90;;;22.10;48.70;;;;;;5054372;28;20234;-79
2023/06/06 03:09:45;;;;;;;2.00;1.90;;;22.10;48.80;;;;;;5054427;28;20568;-79
2023/06/06 03:12:16;;;;;;;2.25;2.15;;;22.10;48.90;;;;;;5054234;28;20650;-79
2023/06/06 03:14:43;;;;;;;2.60;2.40;;;22.10;48.90;;;;;;5055281;28;20289;-79
2023/06/06 03:17:10;;;;;;;2.10;2.00;;;22.10;48.90;;;;;;5054070;28;20218;-79
2023/06/06 03:19:39;;;;;;;2.55;2.35;;;22.10;48.90;;;;;;5054111;28;20282;-79
2023/06/06 03:22:06;;;;;;;2.50;2.30;;;22.10;48.80;;;;;;5037267;28;20203;-79
2023/06/06 03:24:37;;;;;;;2.42;2.22;;;22.20;48.80;;;;;;5054209;28;20301;-79
2023/06/06 03:27:10;;;;;;;2.40;2.20;;;22.20;48.70;;;;;;5054258;28;20674;-79
2023/06/06 03:29:38;;;;;;;2.20;2.10;;;22.20;48.70;;;;;;5053879;28;20278;-79
2023/06/06 03:32:06;;;;;;;2.28;2.10;;;22.30;48.60;;;;;;5053718;28;20245;-79
2023/06/06 03:34:33;;;;;;;2.33;2.20;;;22.30;48.50;;;;;;5052860;28;20231;-79
2023/06/06 03:37:02;;;;;;;2.97;2.10;;;22.40;48.40;;;;;;5054063;28;20225;-79
2023/06/06 03:39:29;;;;;;;2.60;2.40;;;22.40;48.30;;;;;;5054092;28;20191;-79
2023/06/06 03:41:58;;;;;;;2.20;2.00;;;22.40;48.20;;;;;;5053700;28;20211;-79
2023/06/06 03:44:26;;;;;;;2.50;2.00;;;22.40;48.10;;;;;;5053658;28;20211;-79
2023/06/06 03:46:53;;;;;;;2.40;2.20;;;22.50;48.10;;;;;;5053761;28;20199;-79
2023/06/06 03:49:20;;;;;;;2.85;2.30;;;22.50;48.00;;;;;;5054035;28;20381;-79
2023/06/06 03:51:47;;;;;;;2.25;2.00;;;22.50;47.90;;;;;;5054877;28;20202;-79
2023/06/06 03:54:14;;;;;;;2.53;2.33;;;22.50;47.90;;;;;;5053815;28;20223;-79
2023/06/06 03:56:42;;;;;;;2.25;2.05;;;22.50;47.90;;;;;;5053903;28;20203;-79
2023/06/06 03:59:12;;;;;;;2.15;2.05;;;22.50;47.80;;;;;;5053768;28;20199;-79
2023/06/06 04:01:41;;;;;;;2.45;2.25;;;22.50;47.80;;;;;;5054126;28;20635;-80
2023/06/06 04:04:13;;;;;;;2.15;2.03;;;22.50;47.80;;;;;;5052855;28;20306;-80
2023/06/06 04:06:41;;;;;;;2.47;2.28;;;22.50;47.80;;;;;;5075299;28;20195;-79
2023/06/06 04:09:10;;;;;;;2.40;2.20;;;22.60;47.80;;;;;;5079221;28;20175;-79
2023/06/06 04:11:38;;;;;;;2.40;2.20;;;22.50;47.80;;;;;;5059788;28;20187;-79
2023/06/06 04:14:06;;;;;;;2.40;2.20;;;22.60;47.80;;;;;;5053047;28;20215;-79
2023/06/06 04:16:35;;;;;;;2.03;1.92;;;22.60;47.80;;;;;;5052895;28;20265;-79
2023/06/06 04:19:04;;;;;;;2.10;2.00;;;22.60;47.80;;;;;;5052995;28;20199;-79
2023/06/06 04:21:32;;;;;;;2.13;2.00;;;22.60;47.80;;;;;;5052965;28;20200;-79
2023/06/06 04:23:59;;;;;;;2.60;2.40;;;22.60;47.80;;;;;;5053490;28;20195;-79
2023/06/06 04:26:27;;;;;;;2.05;1.92;;;22.60;47.70;;;;;;5053083;28;20221;-79
2023/06/06 04:28:58;;;;;;;2.53;2.33;;;22.60;47.70;;;;;;5053915;28;20199;-79
2023/06/06 04:31:26;;;;;;;2.40;2.20;;;22.60;47.60;;;;;;5053342;28;20195;-80
2023/06/06 04:33:55;;;;;;;3.20;2.90;;;22.60;47.50;;;;;;5053397;28;20294;-80
2023/06/06 04:36:23;;;;;;;2.80;2.60;;;22.70;47.30;;;;;;5053139;28;20195;-80
2023/06/06 04:38:53;;;;;;;3.25;2.97;;;22.70;47.30;;;;;;5052892;28;20199;-80
2023/06/06 04:41:20;;;;;;;3.40;3.10;;;22.70;47.10;;;;;;5052830;28;20211;-80
2023/06/06 04:43:49;;;;;;;3.83;3.30;;;22.70;47.10;;;;;;5036589;28;20191;-80
2023/06/06 04:46:21;;;;;;;3.55;3.25;;;22.70;47.00;;;;;;5053362;28;20657;-80
2023/06/06 04:48:53;;;;;;;3.53;3.20;;;22.70;46.90;;;;;;5053084;28;20187;-80
2023/06/06 04:51:22;;;;;;;3.55;3.25;;;22.80;46.80;;;;;;5052732;28;20203;-80
2023/06/06 04:53:53;;;;;;;3.83;3.42;;;22.80;46.70;;;;;;5056251;28;20215;-80
2023/06/06 04:56:20;;;;;;;4.00;3.25;;;22.90;46.80;;;;;;5056502;28;20219;-80
2023/06/06 04:58:48;;;;;;;4.50;3.30;;;23.00;46.60;;;;;;5057123;28;20201;-80
2023/06/06 05:01:15;;;;;;;5.40;3.30;;;23.10;46.60;;;;;;5056842;28;20199;-80
2023/06/06 05:03:43;;;;;;;5.88;3.38;;;23.10;46.60;;;;;;5056853;28;20223;-80
2023/06/06 05:06:09;;;;;;;3.92;3.20;;;23.10;46.70;;;;;;5040688;28;20277;-80
2023/06/06 05:08:41;;;;;;;3.38;3.08;;;23.20;46.80;;;;;;5057260;28;20776;-80
2023/06/06 05:11:08;;;;;;;3.83;3.35;;;23.30;47.00;;;;;;5062795;28;20285;-79
2023/06/06 05:13:35;;;;;;;4.65;3.90;;;23.30;47.10;;;;;;5056810;28;20222;-79
2023/06/06 05:16:02;;;;;;;3.67;3.38;;;23.30;47.10;;;;;;5052892;28;20229;-80
2023/06/06 05:18:30;;;;;;;4.32;3.25;;;23.40;46.60;;;;;;5036261;28;20210;-80
2023/06/06 05:21:00;;;;;;;3.33;3.00;;;23.50;46.20;;;;;;5052527;28;20286;-80
2023/06/06 05:23:28;;;;;;;3.70;3.13;;;23.50;46.00;;;;;;5052562;28;20203;-80
2023/06/06 05:25:57;;;;;;;4.30;3.90;;;23.60;45.90;;;;;;5053204;28;20555;-80
2023/06/06 05:28:24;;;;;;;4.22;3.13;;;23.70;45.70;;;;;;5052340;28;20202;-80
2023/06/06 05:30:52;;;;;;;4.30;3.28;;;23.80;45.60;;;;;;5052112;28;20199;-80
2023/06/06 05:33:19;;;;;;;4.70;3.67;;;23.80;45.40;;;;;;5052119;28;20261;-80
2023/06/06 05:35:47;;;;;;;3.53;3.22;;;23.90;45.30;;;;;;5052013;28;20230;-80
2023/06/06 05:38:14;;;;;;;4.88;3.60;;;24.00;45.20;;;;;;5036347;28;20199;-80
2023/06/06 05:40:41;;;;;;;3.80;3.42;;;24.00;45.10;;;;;;5054810;28;20225;-80
2023/06/06 05:43:09;;;;;;;5.00;3.60;;;24.00;45.20;;;;;;5053427;28;20200;-79
2023/06/06 05:45:36;;;;;;;3.50;3.20;;;24.00;45.20;;;;;;5058922;28;20222;-80
2023/06/06 05:48:04;;;;;;;5.18;3.13;;;24.00;45.30;;;;;;5052840;28;20199;-79
2023/06/06 05:50:31;;;;;;;4.47;3.33;;;24.00;45.30;;;;;;5036457;28;20555;-79
2023/06/06 05:52:58;;;;;;;4.38;3.58;;;24.00;45.10;;;;;;5052478;28;20199;-79
2023/06/06 05:55:29;;;;;;;4.15;3.75;;;24.10;45.00;;;;;;5052385;28;20227;-79
2023/06/06 05:57:56;;;;;;;4.15;3.47;;;24.20;44.90;;;;;;5052349;28;20283;-79
2023/06/06 06:00:25;;;;;;;4.03;3.63;;;24.30;44.70;;;;;;5056433;28;20665;-79
2023/06/06 06:02:53;;;;;;;4.00;3.55;;;24.50;44.60;;;;;;5056052;28;20214;-79
2023/06/06 06:05:20;;;;;;;3.45;3.15;;;24.60;44.20;;;;;;5055801;28;20211;-79
2023/06/06 06:07:48;;;;;;;5.15;3.50;;;24.70;44.00;;;;;;5056099;28;20204;-79
2023/06/06 06:10:15;;;;;;;4.18;3.40;;;24.80;43.70;;;;;;5056002;28;20235;-79
2023/06/06 06:12:42;;;;;;;4.80;3.75;;;24.90;43.60;;;;;;5039236;28;20290;-79
2023/06/06 06:15:11;;;;;;;3.35;3.05;;;25.10;43.50;;;;;;5055739;28;20263;-79
2023/06/06 06:17:39;;;;;;;3.25;2.95;;;25.20;43.20;;;;;;5055696;28;20207;-79
2023/06/06 06:20:09;;;;;;;3.55;3.17;;;25.30;43.00;;;;;;5055590;28;20222;-79
2023/06/06 06:22:36;;;;;;;4.65;3.42;;;25.40;42.90;;;;;;5055782;28;20654;-79
2023/06/06 06:25:05;;;;;;;5.10;3.40;;;25.40;42.70;;;;;;5056535;28;20222;-79
2023/06/06 06:27:31;;;;;;;4.13;3.28;;;25.50;42.50;;;;;;5055771;28;20203;-79
2023/06/06 06:29:59;;;;;;;4.20;3.40;;;25.60;42.40;;;;;;5055751;28;20547;-79
2023/06/06 06:32:26;;;;;;;3.80;3.50;;;25.60;42.10;;;;;;5056253;28;20202;-79
2023/06/06 06:34:55;;;;;;;4.05;3.33;;;25.70;42.00;;;;;;5041565;28;20224;-79
2023/06/06 06:37:23;;;;;;;4.15;3.08;;;25.80;41.90;;;;;;5057029;28;20253;-79
2023/06/06 06:39:50;;;;;;;3.70;3.40;;;25.90;41.70;;;;;;5055910;28;20224;-79
2023/06/06 06:42:17;;;;;;;3.70;3.40;;;25.90;41.50;;;;;;5055020;28;20214;-79
2023/06/06 06:44:58;;;;;;;4.18;3.33;;;26.00;41.40;;;;;;5056018;28;20275;-79
2023/06/06 06:47:25;;;;;;;3.30;3.00;;;26.10;41.30;;;;;;5055032;28;20199;-79
2023/06/06 06:49:54;;;;;;;3.83;3.20;;;26.10;41.20;;;;;;5055594;28;20195;-79
2023/06/06 06:52:22;;;;;;;3.70;3.35;;;26.20;41.10;;;;;;5055028;28;20251;-79
2023/06/06 06:54:54;;;;;;;3.78;3.40;;;26.20;40.90;;;;;;5038418;28;20223;-79
2023/06/06 06:57:22;;;;;;;5.60;3.40;;;26.30;40.80;;;;;;5055014;28;20203;-79
2023/06/06 06:59:49;;;;;;;3.42;3.13;;;26.40;40.60;;;;;;5054956;28;20195;-79
2023/06/06 07:02:18;;;;;;;3.90;3.50;;;26.40;40.60;;;;;;5055872;28;20195;-79
2023/06/06 07:04:46;;;;;;;3.65;3.10;;;26.50;40.40;;;;;;5054767;28;20294;-79
2023/06/06 07:07:14;;;;;;;3.95;3.10;;;26.50;40.30;;;;;;5054427;28;20253;-79
2023/06/06 07:09:44;;;;;;;3.70;3.30;;;26.60;40.20;;;;;;5054195;28;20202;-79
2023/06/06 07:12:11;;;;;;;3.45;2.80;;;26.60;40.10;;;;;;5055650;28;20286;-79
2023/06/06 07:14:38;;;;;;;3.50;3.20;;;26.70;40.00;;;;;;5054299;28;20215;-79
2023/06/06 07:17:07;;;;;;;3.33;3.03;;;26.70;39.90;;;;;;5057033;28;20199;-79
2023/06/06 07:19:35;;;;;;;3.17;2.88;;;26.80;40.40;;;;;;5054851;28;20658;-79
2023/06/06 07:22:02;;;;;;;3.28;2.97;;;26.80;39.70;;;;;;5066089;28;20192;-79
2023/06/06 07:24:30;;;;;;;3.50;3.20;;;26.90;39.60;;;;;;5079775;28;20271;-79
2023/06/06 07:26:59;;;;;;;3.67;3.38;;;26.90;39.40;;;;;;5055526;28;20709;-79
2023/06/06 07:29:26;;;;;;;3.97;3.15;;;27.00;39.40;;;;;;5057898;28;20203;-79
2023/06/06 07:31:53;;;;;;;4.05;2.97;;;27.00;39.30;;;;;;5079894;28;20187;-79
2023/06/06 07:34:21;;;;;;;3.53;3.22;;;27.10;39.20;;;;;;5079663;28;20233;-79
2023/06/06 07:36:47;;;;;;;3.50;3.10;;;27.10;39.10;;;;;;5079800;28;20188;-79
2023/06/06 07:39:14;;;;;;;3.30;3.00;;;27.10;39.00;;;;;;5079810;28;20179;-79
2023/06/06 07:41:42;;;;;;;3.53;3.17;;;27.20;39.00;;;;;;5079639;28;20190;-79
2023/06/06 07:44:10;;;;;;;3.00;2.80;;;27.20;38.90;;;;;;5041413;28;20225;-79
2023/06/06 07:46:37;;;;;;;3.55;3.25;;;27.20;38.80;;;;;;5054111;28;20203;-79
2023/06/06 07:49:04;;;;;;;3.10;2.80;;;27.20;38.60;;;;;;5054316;28;20205;-79
2023/06/06 07:51:31;;;;;;;2.80;2.60;;;27.20;38.60;;;;;;5054085;28;20209;-79
2023/06/06 07:53:58;;;;;;;3.20;2.90;;;27.30;38.50;;;;;;5037043;28;20672;-79
2023/06/06 07:56:25;;;;;;;3.80;3.20;;;27.40;38.40;;;;;;5053905;28;20190;-79
2023/06/06 07:58:53;;;;;;;3.42;3.13;;;27.40;38.30;;;;;;5055219;28;20191;-79
2023/06/06 08:01:21;;;;;;;3.35;3.05;;;27.40;38.30;;;;;;5037110;28;20203;-79
2023/06/06 08:03:50;;;;;;;3.58;3.28;;;27.40;38.20;;;;;;5053163;28;20198;-79
2023/06/06 08:06:18;;;;;;;3.28;2.97;;;27.50;38.10;;;;;;5053186;28;20198;-79
2023/06/06 08:08:48;;;;;;;3.67;2.90;;;27.50;38.00;;;;;;5053215;28;20289;-79
2023/06/06 08:11:15;;;;;;;3.05;2.75;;;27.60;38.00;;;;;;5053471;28;20257;-79
2023/06/06 08:13:42;;;;;;;3.63;3.33;;;27.60;37.80;;;;;;5036398;28;20210;-79
2023/06/06 08:16:09;;;;;;;3.15;2.90;;;27.60;37.80;;;;;;5053374;28;20578;-79
2023/06/06 08:18:38;;;;;;;3.35;3.03;;;27.60;37.70;;;;;;5053855;28;20252;-79
2023/06/06 08:21:05;;;;;;;2.88;2.65;;;27.60;37.60;;;;;;5052350;28;20202;-79
2023/06/06 08:23:33;;;;;;;2.90;2.60;;;27.60;37.50;;;;;;5053040;28;20187;-79
2023/06/06 08:26:00;;;;;;;3.03;2.83;;;27.70;37.60;;;;;;5053174;28;20215;-79
2023/06/06 08:28:28;;;;;;;3.20;2.92;;;27.70;37.60;;;;;;5052840;28;20576;-79
2023/06/06 08:30:55;;;;;;;3.70;2.90;;;27.60;37.50;;;;;;5052835;28;20209;-79
2023/06/06 08:33:22;;;;;;;2.85;2.65;;;27.70;37.60;;;;;;5037516;28;20195;-79
2023/06/06 08:35:50;;;;;;;3.30;2.97;;;27.70;37.60;;;;;;5052629;28;20222;-79
2023/06/06 08:38:17;;;;;;;3.47;2.75;;;27.70;37.60;;;;;;5053690;28;20194;-79
2023/06/06 08:40:44;;;;;;;3.13;2.92;;;27.80;37.70;;;;;;5052544;28;20202;-79
2023/06/06 08:43:12;;;;;;;3.78;2.97;;;27.80;37.60;;;;;;5052769;28;20197;-79
2023/06/06 08:45:41;;;;;;;3.22;2.92;;;27.80;37.50;;;;;;5052438;28;20225;-79
2023/06/06 08:48:08;;;;;;;2.90;2.70;;;27.80;37.40;;;;;;5052582;28;20203;-79
2023/06/06 08:50:35;;;;;;;2.83;2.58;;;27.80;37.40;;;;;;5052695;28;20645;-79
2023/06/06 08:53:04;;;;;;;3.05;2.75;;;27.80;37.40;;;;;;5036149;28;20201;-79
2023/06/06 08:55:33;;;;;;;2.80;2.60;;;27.90;37.40;;;;;;5052408;28;20276;-79
2023/06/06 08:58:00;;;;;;;2.90;2.70;;;27.90;37.30;;;;;;5052585;28;20195;-79
2023/06/06 09:00:27;;;;;;;2.90;2.70;;;27.90;37.30;;;;;;5036115;28;20657;-79
2023/06/06 09:02:55;;;;;;;2.90;2.60;;;27.90;37.30;;;;;;5052421;28;20199;-79
2023/06/06 09:05:22;;;;;;;3.15;2.85;;;27.90;37.30;;;;;;5035876;28;20210;-80
2023/06/06 09:07:49;;;;;;;2.85;2.65;;;27.90;37.30;;;;;;5052085;28;20654;-80
2023/06/06 09:10:18;;;;;;;3.70;2.97;;;27.90;37.30;;;;;;5052439;28;20199;-79
2023/06/06 09:12:47;;;;;;;3.08;2.70;;;27.90;37.40;;;;;;5035881;28;20206;-79
2023/06/06 09:15:14;;;;;;;2.72;2.53;;;27.90;37.90;;;;;;5052246;28;20268;-79
2023/06/06 09:17:41;;;;;;;2.80;2.60;;;27.90;37.30;;;;;;5052295;28;20195;-79
2023/06/06 09:20:10;;;;;;;2.80;2.60;;;27.90;37.30;;;;;;5052259;28;20210;-79
2023/06/06 09:22:40;;;;;;;2.90;2.70;;;27.90;37.30;;;;;;5052589;28;20191;-79
2023/06/06 09:25:12;;;;;;;3.00;2.72;;;27.90;37.30;;;;;;5052019;28;20693;-80
2023/06/06 09:27:41;;;;;;;3.28;2.80;;;27.90;37.30;;;;;;5052271;28;20221;-80
2023/06/06 09:30:19;;;;;;;3.10;2.80;;;27.90;37.20;;;;;;5052348;28;20292;-80
2023/06/06 09:32:46;;;;;;;3.13;2.83;;;27.90;37.30;;;;;;5052744;28;20201;-80
2023/06/06 09:35:15;;;;;;;4.82;2.95;;;27.90;37.30;;;;;;5057151;28;20313;-80
2023/06/06 09:37:42;;;;;;;3.15;2.85;;;27.90;37.30;;;;;;5059102;28;20277;-80
2023/06/06 09:40:12;;;;;;;2.90;2.70;;;27.90;37.30;;;;;;5065008;28;20199;-79
2023/06/06 09:42:45;;;;;;;2.90;2.63;;;27.90;37.30;;;;;;5056896;28;20229;-79
2023/06/06 09:45:16;;;;;;;2.80;2.60;;;27.90;37.40;;;;;;5056426;28;20218;-79
2023/06/06 09:47:43;;;;;;;3.08;2.80;;;27.90;37.40;;;;;;5039681;28;20210;-79
2023/06/06 09:50:10;;;;;;;3.05;2.70;;;27.80;37.40;;;;;;5056516;28;20191;-79
2023/06/06 09:52:38;;;;;;;2.67;2.47;;;27.80;37.40;;;;;;5056155;28;20653;-79
2023/06/06 09:55:09;;;;;;;2.60;2.40;;;27.80;37.40;;;;;;5055896;28;20589;-79
2023/06/06 09:57:36;;;;;;;2.88;2.63;;;27.80;37.40;;;;;;5056875;28;20198;-79
2023/06/06 10:00:10;;;;;;;2.90;2.58;;;27.80;37.50;;;;;;5056858;28;20229;-79
2023/06/06 10:02:42;;;;;;;2.95;2.72;;;27.80;37.50;;;;;;5058467;28;20731;-79
2023/06/06 10:05:11;;;;;;;2.90;2.70;;;27.80;37.60;;;;;;5058121;28;20203;-79
2023/06/06 10:07:40;;;;;;;2.85;2.65;;;27.80;37.70;;;;;;5040453;28;20202;-79
2023/06/06 10:10:09;;;;;;;2.70;2.50;;;27.70;37.60;;;;;;5056479;28;20198;-79
2023/06/06 10:12:36;;;;;;;3.00;2.80;;;27.70;37.60;;;;;;5056650;28;20199;-79
2023/06/06 10:15:05;;;;;;;2.90;2.53;;;27.70;37.60;;;;;;5040855;28;20276;-79
2023/06/06 10:17:32;;;;;;;3.17;2.78;;;27.60;37.60;;;;;;5040439;28;20199;-79
2023/06/06 10:20:05;;;;;;;3.17;2.97;;;27.60;37.70;;;;;;5040278;28;20214;-79
2023/06/06 10:22:32;;;;;;;2.88;2.65;;;27.60;37.80;;;;;;5056871;28;20244;-79
2023/06/06 10:24:59;;;;;;;3.88;2.80;;;27.60;37.90;;;;;;5040177;28;20697;-79
2023/06/06 10:27:27;;;;;;;2.65;2.45;;;27.50;37.80;;;;;;5056531;28;20186;-79
2023/06/06 10:29:59;;;;;;;2.80;2.60;;;27.50;38.00;;;;;;5056684;28;20286;-79
2023/06/06 10:32:30;;;;;;;2.60;2.40;;;27.50;38.10;;;;;;5056087;28;20191;-79
2023/06/06 10:34:58;;;;;;;2.90;2.67;;;27.50;38.20;;;;;;5038389;28;20777;-79
2023/06/06 10:37:25;;;;;;;2.70;2.50;;;27.40;38.10;;;;;;5058036;28;20203;-80
2023/06/06 10:40:00;;;;;;;2.83;2.58;;;27.40;38.10;;;;;;5057950;28;20657;-79
2023/06/06 10:42:35;;;;;;;2.85;2.65;;;27.40;38.30;;;;;;5072230;28;20182;-79
2023/06/06 10:45:02;;;;;;;2.92;2.65;;;27.30;38.30;;;;;;5080021;28;20198;-78
2023/06/06 10:47:32;;;;;;;3.20;2.90;;;27.30;38.30;;;;;;5069349;28;20190;-79
2023/06/06 10:50:21;;;;;;;2.85;2.65;;;27.20;38.40;;;;;;5055249;28;20203;-80
2023/06/06 10:52:49;;;;;;;2.80;2.60;;;27.30;38.50;;;;;;5054964;28;20195;-80
2023/06/06 10:55:16;;;;;;;2.90;2.70;;;27.20;38.50;;;;;;5055411;28;20225;-80
2023/06/06 10:57:53;;;;;;;2.80;2.60;;;27.20;38.50;;;;;;5057218;28;20206;-80
2023/06/06 11:00:23;;;;;;;3.25;2.95;;;27.20;38.50;;;;;;5057506;28;20195;-80
2023/06/06 11:02:52;;;;;;;2.92;2.67;;;27.20;38.80;;;;;;5040931;28;20199;-80
2023/06/06 11:05:21;;;;;;;2.80;2.60;;;27.10;38.80;;;;;;5057620;28;20298;-80
2023/06/06 11:07:50;;;;;;;2.60;2.40;;;27.10;38.80;;;;;;5057526;28;20203;-79
2023/06/06 11:10:21;;;;;;;2.83;2.63;;;27.10;39.00;;;;;;5038501;28;20268;-79
2023/06/06 11:12:49;;;;;;;2.88;2.60;;;27.00;39.00;;;;;;5054930;28;20314;-79
2023/06/06 11:15:26;;;;;;;3.03;2.50;;;27.00;39.10;;;;;;5054249;28;20218;-79
2023/06/06 11:18:00;;;;;;;2.63;2.42;;;27.00;39.40;;;;;;5055102;28;20227;-79
2023/06/06 11:20:27;;;;;;;2.75;2.53;;;27.00;39.20;;;;;;5054363;28;20183;-79
2023/06/06 11:23:01;;;;;;;2.70;2.50;;;27.00;39.20;;;;;;5054026;28;20201;-79
2023/06/06 11:25:29;;;;;;;2.88;2.67;;;27.00;39.30;;;;;;5054463;28;20730;-79
2023/06/06 11:27:56;;;;;;;2.50;2.30;;;26.90;39.30;;;;;;5053960;28;20222;-79
2023/06/06 11:30:24;;;;;;;2.80;2.60;;;26.90;39.30;;;;;;5054139;28;20203;-79
2023/06/06 11:32:51;;;;;;;2.65;2.45;;;26.90;39.30;;;;;;5053897;28;20226;-79
2023/06/06 11:35:20;;;;;;;2.85;2.65;;;26.90;39.40;;;;;;5053892;28;20685;-80
2023/06/06 11:37:48;;;;;;;2.97;2.78;;;26.90;39.40;;;;;;5053802;28;20293;-80
2023/06/06 11:40:15;;;;;;;2.78;2.50;;;26.90;39.40;;;;;;5037278;28;20194;-80
2023/06/06 11:42:43;;;;;;;2.60;2.40;;;26.90;39.40;;;;;;5053982;28;20257;-80
2023/06/06 11:45:14;;;;;;;2.80;2.60;;;26.90;39.40;;;;;;5055297;28;20248;-80
2023/06/06 11:47:41;;;;;;;2.78;2.58;;;26.90;39.40;;;;;;5055139;28;20518;-80
2023/06/06 11:50:09;;;;;;;2.53;2.33;;;26.90;39.50;;;;;;5054584;28;20207;-80
2023/06/06 11:52:46;;;;;;;2.70;2.50;;;26.90;39.40;;;;;;5053999;28;20289;-80
2023/06/06 11:55:13;;;;;;;3.20;3.00;;;26.80;39.40;;;;;;5053119;28;20313;-80
2023/06/06 11:57:40;;;;;;;3.13;2.25;;;26.80;39.50;;;;;;5052816;28;20223;-80
2023/06/06 12:00:16;;;;;;;2.72;2.22;;;26.80;39.50;;;;;;5053453;28;20299;-79
2023/06/06 12:02:47;;;;;;;2.45;2.25;;;26.80;39.60;;;;;;5037791;28;20201;-80
2023/06/06 12:05:19;;;;;;;2.90;2.60;;;26.80;39.60;;;;;;5053241;28;20355;-80
2023/06/06 12:07:48;;;;;;;2.80;2.60;;;26.80;39.70;;;;;;5053455;28;20202;-80
2023/06/06 12:10:22;;;;;;;2.80;2.60;;;26.70;39.70;;;;;;5053327;28;20203;-80
2023/06/06 12:12:50;;;;;;;2.60;2.40;;;26.70;39.80;;;;;;5053272;28;20218;-80
2023/06/06 12:15:17;;;;;;;2.55;2.35;;;26.70;39.80;;;;;;5053333;28;20214;-80
2023/06/06 12:17:44;;;;;;;2.80;2.60;;;26.70;39.80;;;;;;5053305;28;20630;-80
2023/06/06 12:20:11;;;;;;;2.78;2.58;;;26.70;39.90;;;;;;5036778;28;20241;-80
2023/06/06 12:22:38;;;;;;;2.90;2.60;;;26.60;39.90;;;;;;5052864;28;20287;-80
2023/06/06 12:25:08;;;;;;;2.67;2.47;;;26.60;39.90;;;;;;5052844;28;20226;-80
2023/06/06 12:27:36;;;;;;;2.60;2.40;;;26.60;40.00;;;;;;5036138;28;20248;-80
2023/06/06 12:30:04;;;;;;;2.40;2.20;;;26.60;40.00;;;;;;5036645;28;20195;-80
2023/06/06 12:32:31;;;;;;;2.83;2.63;;;26.60;40.00;;;;;;5053121;28;20542;-80
2023/06/06 12:35:02;;;;;;;2.70;2.50;;;26.60;40.10;;;;;;5036038;28;20313;-80
2023/06/06 12:37:37;;;;;;;2.70;2.50;;;26.60;40.10;;;;;;5053248;28;20554;-80
2023/06/06 12:40:15;;;;;;;2.85;2.65;;;26.50;40.10;;;;;;5052766;28;20202;-80
2023/06/06 12:42:42;;;;;;;3.17;2.60;;;26.50;40.10;;;;;;5053025;28;20252;-80
2023/06/06 12:45:11;;;;;;;2.70;2.50;;;26.50;40.20;;;;;;5052532;28;20344;-80
2023/06/06 12:47:38;;;;;;;2.70;2.50;;;26.50;40.20;;;;;;5036243;28;20276;-80
2023/06/06 12:50:06;;;;;;;3.00;2.80;;;26.50;40.20;;;;;;5052459;28;20199;-80
2023/06/06 12:52:33;;;;;;;2.63;2.42;;;26.50;40.20;;;;;;5053903;28;20741;-80
2023/06/06 12:55:01;;;;;;;2.63;2.42;;;26.50;40.30;;;;;;5052442;28;20257;-80